Time;durP1;ratioP1;P1;durP2;ratioP2;P2;SDS_P1;SDS_P2;PMS_P1;PMS_P2;Temp;Humidity;BMP_temperature;BMP_pressure;BME280_temperature;BME280_humidity;BME280_pressure;Samples;Min_cycle;Max_cycle;Signal;HPM_P1;HPM_P2
2022/06/02 00:02:13;;;;;;;4.05;3.63;;;;;;;19.01;90.32;99797.78;4990500;28;20089;-84
2022/06/02 00:04:52;;;;;;;4.32;3.90;;;;;;;19.04;90.95;99799.59;4975285;28;20081;-85
2022/06/02 00:07:39;;;;;;;6.55;4.22;;;;;;;19.07;91.41;99781.72;4972593;28;20531;-84
2022/06/02 00:10:15;;;;;;;7.20;4.50;;;;;;;19.12;90.50;99783.81;4989568;28;20066;-85
2022/06/02 00:12:49;;;;;;;9.00;4.20;;;;;;;19.14;90.33;99781.25;4989190;28;20070;-84
2022/06/02 00:15:26;;;;;;;;;;;;;;;19.17;90.65;99780.25;4974122;28;20428;-84
2022/06/02 00:18:11;;;;;;;5.05;4.13;;;;;;;19.17;91.21;99766.19;4965782;28;19953;-85
2022/06/02 00:20:50;;;;;;;6.47;4.53;;;;;;;19.16;91.33;99755.47;4972446;28;20209;-85
2022/06/02 00:23:25;;;;;;;4.78;4.00;;;;;;;19.17;91.57;99757.00;4972819;28;20524;-84
2022/06/02 00:26:02;;;;;;;5.95;4.38;;;;;;;19.18;91.43;99756.47;4988757;28;20046;-85
2022/06/02 00:28:52;;;;;;;4.70;3.97;;;;;;;19.20;91.82;99762.38;4971394;28;20089;-85
2022/06/02 00:31:42;;;;;;;5.25;4.63;;;;;;;19.19;92.19;99760.84;4987882;28;20460;-84
2022/06/02 00:34:32;;;;;;;5.80;4.70;;;;;;;19.30;92.00;99811.50;4989044;28;20071;-84
2022/06/02 00:37:23;;;;;;;5.15;3.42;;;;;;;18.99;90.96;99850.94;4988155;28;20826;-83
2022/06/02 00:39:50;;;;;;;9.00;3.90;;;;;;;18.82;92.84;99878.13;4989856;28;20050;-84
2022/06/02 00:42:28;;;;;;;6.60;4.28;;;;;;;18.62;96.55;99864.91;4988594;28;20030;-84
2022/06/02 00:44:59;;;;;;;9.80;4.18;;;;;;;18.33;100.00;99868.66;4989579;28;20046;-82
2022/06/02 00:47:48;;;;;;;5.72;3.47;;;;;;;17.97;100.00;99894.53;4989775;28;20042;-83
2022/06/02 00:50:38;;;;;;;11.63;3.10;;;;;;;17.60;100.00;99917.50;4989447;28;20053;-83
2022/06/02 00:53:14;;;;;;;11.30;3.63;;;;;;;17.31;100.00;99911.94;4971063;28;20046;-82
2022/06/02 00:59:02;;;;;;;8.13;2.97;;;;;;;16.93;100.00;99898.06;4993305;28;20050;-82
2022/06/02 01:04:05;;;;;;;6.75;2.75;;;;;;;16.76;100.00;99890.16;5008096;28;20422;-82
2022/06/02 01:06:42;;;;;;;5.63;2.50;;;;;;;16.79;100.00;99883.59;4996344;28;20050;-82
2022/06/02 01:09:32;;;;;;;5.20;2.88;;;;;;;16.75;100.00;99860.59;4994671;28;20076;-82
2022/06/02 01:12:10;;;;;;;5.65;2.40;;;;;;;16.79;100.00;99858.38;5012197;28;20545;-82
2022/06/02 01:14:49;;;;;;;5.00;2.50;;;;;;;16.75;100.00;99852.19;4995753;28;20045;-81
2022/06/02 01:17:39;;;;;;;3.20;1.58;;;;;;;16.76;100.00;99858.56;5013894;28;20045;-82
2022/06/02 01:20:20;;;;;;;2.97;1.40;;;;;;;16.76;100.00;99852.97;4993431;28;20076;-82
2022/06/02 01:23:07;;;;;;;4.05;1.50;;;;;;;16.77;100.00;99840.50;4995464;28;20042;-82
2022/06/02 01:25:52;;;;;;;3.22;1.60;;;;;;;16.75;100.00;99837.41;5016142;28;20046;-82
2022/06/02 01:28:45;;;;;;;3.63;1.35;;;;;;;16.75;100.00;99843.78;5012095;28;20398;-82
2022/06/02 01:31:14;;;;;;;3.15;1.30;;;;;;;16.77;100.00;99846.88;5013004;28;20046;-82
2022/06/02 01:34:04;;;;;;;3.35;1.70;;;;;;;16.71;100.00;99840.41;5011374;28;20076;-82
2022/06/02 01:36:45;;;;;;;3.22;1.83;;;;;;;16.70;100.00;99847.25;5013730;28;20526;-82
2022/06/02 01:39:13;;;;;;;3.30;2.03;;;;;;;16.63;100.00;99858.84;5010392;28;20046;-82
2022/06/02 01:42:13;;;;;;;2.97;2.47;;;;;;;16.60;100.00;99859.84;5012796;28;20030;-85
2022/06/02 01:44:38;;;;;;;3.65;2.47;;;;;;;16.51;100.00;99854.28;5012256;28;20038;-85
2022/06/02 01:47:37;;;;;;;4.72;2.78;;;;;;;16.45;100.00;99847.81;5012671;28;20044;-85
2022/06/02 01:50:15;;;;;;;4.20;2.90;;;;;;;16.38;100.00;99848.19;4991302;28;20092;-85
2022/06/02 01:53:08;;;;;;;6.97;3.30;;;;;;;16.34;100.00;99853.19;5011143;28;20046;-85
2022/06/02 01:56:01;;;;;;;3.65;3.35;;;;;;;16.32;100.00;99856.50;5011641;28;20041;-85
2022/06/02 01:58:48;;;;;;;3.83;3.42;;;;;;;16.29;100.00;99859.50;4994628;28;20495;-85
2022/06/02 02:01:16;;;;;;;6.13;3.80;;;;;;;16.25;100.00;99872.91;5007493;28;20061;-82
2022/06/02 02:04:18;;;;;;;4.85;4.03;;;;;;;16.19;100.00;99872.00;5026342;28;20112;-82
2022/06/02 02:06:48;;;;;;;5.28;4.15;;;;;;;16.19;100.00;99880.41;5028079;28;20442;-82
2022/06/02 02:09:32;;;;;;;4.90;4.10;;;;;;;16.18;100.00;99878.84;5027845;28;20045;-82
2022/06/02 02:11:57;;;;;;;;;;;;;;;16.17;100.00;99871.72;5037314;28;20045;-82
2022/06/02 02:15:04;;;;;;;6.82;4.90;;;;;;;16.14;100.00;99872.66;5013397;28;19926;-82
2022/06/02 02:17:42;;;;;;;6.80;5.18;;;;;;;16.09;100.00;99867.75;5001125;28;20045;-83
2022/06/02 02:20:34;;;;;;;5.75;5.15;;;;;;;16.12;100.00;99880.78;5013327;28;20410;-85
2022/06/02 02:23:05;;;;;;;6.10;5.20;;;;;;;16.13;100.00;99871.13;4974133;28;20073;-86
2022/06/02 02:25:35;;;;;;;6.18;5.57;;;;;;;16.10;100.00;99883.25;5029434;28;20041;-85
2022/06/02 02:28:07;;;;;;;6.40;5.28;;;;;;;16.07;100.00;99884.22;5012470;28;20045;-84
2022/06/02 02:30:38;;;;;;;6.25;5.65;;;;;;;16.09;100.00;99901.31;5012835;28;20048;-85
2022/06/02 02:33:31;;;;;;;7.20;5.70;;;;;;;16.07;100.00;99901.78;5027088;28;20045;-85
2022/06/02 02:36:47;;;;;;;7.43;5.97;;;;;;;16.09;100.00;99904.13;5030463;28;20045;-85
2022/06/02 02:39:38;;;;;;;7.30;6.18;;;;;;;16.17;100.00;99916.50;4987401;28;20819;-82
2022/06/02 02:42:14;;;;;;;6.80;6.20;;;;;;;16.12;100.00;99915.13;4988779;28;20057;-81
2022/06/02 02:44:58;;;;;;;7.10;6.40;;;;;;;16.17;100.00;99922.09;5005206;28;20038;-82
2022/06/02 02:47:42;;;;;;;8.55;6.82;;;;;;;16.18;100.00;99923.63;5032815;28;20081;-82
2022/06/02 02:50:20;;;;;;;7.53;6.80;;;;;;;16.18;100.00;99929.22;4994906;28;20120;-82
2022/06/02 02:52:56;;;;;;;7.65;6.70;;;;;;;16.10;100.00;99922.44;5030350;28;20515;-82
2022/06/02 02:55:39;;;;;;;7.43;6.78;;;;;;;16.13;100.00;99939.06;5012448;28;20052;-82
2022/06/02 02:58:24;;;;;;;8.27;7.43;;;;;;;16.07;100.00;99932.56;5012197;28;20735;-85
2022/06/02 03:01:28;;;;;;;8.00;7.05;;;;;;;16.03;100.00;99912.41;5026908;28;20069;-85
2022/06/02 03:04:21;;;;;;;7.47;6.65;;;;;;;16.05;100.00;99920.31;4970707;28;20057;-85
2022/06/02 03:06:54;;;;;;;8.32;6.85;;;;;;;16.00;100.00;99912.56;5007990;28;20498;-85
2022/06/02 03:09:42;;;;;;;7.25;6.45;;;;;;;15.99;100.00;99922.22;5010311;28;20045;-85
2022/06/02 03:12:09;;;;;;;6.78;6.18;;;;;;;16.02;100.00;99926.84;4992849;28;20052;-85
2022/06/02 03:15:06;;;;;;;7.00;6.28;;;;;;;16.08;100.00;99924.94;4993386;28;20557;-82
2022/06/02 03:18:24;;;;;;;6.90;6.18;;;;;;;16.12;100.00;99931.13;5013489;28;20046;-85
2022/06/02 03:20:59;;;;;;;6.65;6.05;;;;;;;16.13;100.00;99927.09;5004748;28;20034;-85
2022/06/02 03:23:41;;;;;;;7.10;6.40;;;;;;;16.19;100.00;99927.97;5010447;28;20535;-86
2022/06/02 03:26:30;;;;;;;7.32;6.28;;;;;;;16.19;100.00;99941.97;4991944;28;20081;-85
2022/06/02 03:29:19;;;;;;;7.50;6.70;;;;;;;16.14;100.00;99943.38;4990953;28;20071;-86
2022/06/02 03:31:45;;;;;;;7.80;7.10;;;;;;;16.11;100.00;99940.78;4999596;28;20189;-86
2022/06/02 03:34:22;;;;;;;7.47;6.78;;;;;;;16.17;100.00;99944.47;5009274;28;20120;-86
2022/06/02 03:37:03;;;;;;;8.15;7.13;;;;;;;16.23;100.00;99950.94;5009263;28;20502;-85
2022/06/02 03:39:54;;;;;;;7.80;7.00;;;;;;;16.19;100.00;99950.34;5008651;28;20037;-86
2022/06/02 03:42:28;;;;;;;8.18;7.13;;;;;;;16.20;100.00;99940.72;5010263;28;20052;-85
2022/06/02 03:44:53;;;;;;;9.10;7.20;;;;;;;16.20;100.00;99954.72;5007395;28;20042;-86
2022/06/02 03:47:45;;;;;;;8.90;7.40;;;;;;;16.16;100.00;99959.72;5006573;28;20093;-86
2022/06/02 03:50:14;;;;;;;8.38;7.57;;;;;;;16.12;100.00;99959.13;4989198;28;20495;-86
2022/06/02 03:52:55;;;;;;;8.07;7.28;;;;;;;16.10;100.00;99967.22;5010947;28;20050;-86
2022/06/02 03:55:24;;;;;;;7.95;7.22;;;;;;;16.11;100.00;99968.75;5011136;28;20041;-82
2022/06/02 03:57:56;;;;;;;8.90;8.00;;;;;;;16.08;100.00;99964.91;5003596;28;20038;-82
2022/06/02 04:00:46;;;;;;;8.50;7.68;;;;;;;16.09;100.00;99969.25;5009761;28;20037;-82
2022/06/02 04:03:23;;;;;;;8.43;7.72;;;;;;;16.05;100.00;99957.47;5016800;28;20041;-82
2022/06/02 04:06:02;;;;;;;9.02;8.10;;;;;;;16.01;100.00;99958.91;5009437;28;20034;-82
2022/06/02 04:08:55;;;;;;;10.18;8.57;;;;;;;16.14;100.00;99965.00;5008198;28;20034;-82
2022/06/02 04:13:37;;;;;;;9.10;8.18;;;;;;;16.14;100.00;99970.59;5029097;28;20049;-85
2022/06/02 04:14:43;;;;;;;8.75;7.95;;;;;;;16.16;100.00;99977.28;5003490;28;20045;-81
2022/06/02 04:17:26;;;;;;;8.55;7.75;;;;;;;16.19;100.00;99969.94;5002757;28;20042;-81
2022/06/02 04:23:11;;;;;;;8.77;7.97;;;;;;;16.32;100.00;99962.09;5019118;28;20038;-82
2022/06/02 04:26:07;;;;;;;9.43;8.13;;;;;;;16.28;100.00;99961.50;5002790;28;20057;-81
2022/06/02 04:28:42;;;;;;;9.00;8.10;;;;;;;16.47;100.00;99978.91;5021206;28;20033;-83
2022/06/02 04:31:25;;;;;;;8.43;7.63;;;;;;;16.46;100.00;99989.34;5024130;28;20061;-80
2022/06/02 04:33:56;;;;;;;;;;;;;;;16.46;100.00;99989.34;5024317;28;20124;-80
2022/06/02 04:36:37;;;;;;;9.20;7.47;;;;;;;16.41;100.00;99989.25;5027253;28;19967;-80
2022/06/02 04:39:20;;;;;;;11.90;8.02;;;;;;;16.49;100.00;99998.81;5010544;28;20050;-80
2022/06/02 04:41:53;;;;;;;12.90;8.18;;;;;;;16.51;100.00;99991.47;5009805;28;20050;-80
2022/06/02 04:45:04;;;;;;;8.20;7.32;;;;;;;16.47;100.00;99987.31;5009258;28;20498;-80
2022/06/02 04:48:19;;;;;;;7.88;7.18;;;;;;;16.51;100.00;100002.69;5006806;28;20056;-80
2022/06/02 04:51:08;;;;;;;8.13;7.32;;;;;;;16.58;100.00;100012.78;4982294;28;20056;-80
2022/06/02 04:53:38;;;;;;;9.23;8.32;;;;;;;16.57;100.00;100012.00;5018449;28;20046;-84
2022/06/02 04:56:03;;;;;;;9.65;8.68;;;;;;;16.59;100.00;100014.31;4998360;28;20034;-82
2022/06/02 04:58:31;;;;;;;9.80;7.60;;;;;;;16.69;100.00;100013.78;5016396;28;20598;-82
2022/06/02 05:01:14;;;;;;;8.27;7.47;;;;;;;16.78;100.00;100019.28;5001964;28;20104;-82
2022/06/02 05:03:49;;;;;;;7.75;6.95;;;;;;;16.90;100.00;100016.72;5022013;28;20113;-83
2022/06/02 05:06:23;;;;;;;9.10;7.70;;;;;;;16.95;100.00;100027.22;4987716;28;20057;-83
2022/06/02 05:08:55;;;;;;;8.35;7.13;;;;;;;17.02;100.00;100029.69;5010804;28;20038;-82
2022/06/02 05:11:31;;;;;;;9.18;7.88;;;;;;;17.10;100.00;100037.22;4993936;28;20045;-82
2022/06/02 05:14:00;;;;;;;10.23;7.47;;;;;;;17.23;100.00;100045.34;5010457;28;20045;-83
2022/06/02 05:16:48;;;;;;;8.55;7.75;;;;;;;17.38;100.00;100054.53;5028320;28;20036;-83
2022/06/02 05:19:22;;;;;;;8.75;7.10;;;;;;;17.52;100.00;100050.94;5020065;28;20029;-84
2022/06/02 05:22:31;;;;;;;8.68;7.82;;;;;;;17.52;100.00;100050.94;5028099;28;20506;-83
2022/06/02 05:25:15;;;;;;;7.63;6.78;;;;;;;17.50;100.00;100059.09;4989399;28;20053;-83
2022/06/02 05:27:40;;;;;;;6.97;6.25;;;;;;;17.50;100.00;100053.47;5028158;28;20057;-83
2022/06/02 05:30:16;;;;;;;7.18;6.43;;;;;;;17.41;100.00;100055.59;5027536;28;20569;-81
2022/06/02 05:33:08;;;;;;;7.00;6.30;;;;;;;17.38;100.00;100057.34;5026397;28;20073;-81
2022/06/02 05:35:53;;;;;;;8.40;6.78;;;;;;;17.25;100.00;100051.25;5023222;28;20565;-81
2022/06/02 05:38:33;;;;;;;7.38;6.10;;;;;;;17.33;100.00;100066.44;5005061;28;20056;-81
2022/06/02 05:41:20;;;;;;;6.80;6.10;;;;;;;17.41;100.00;100070.41;5015593;28;20053;-82
2022/06/02 05:44:06;;;;;;;6.90;6.20;;;;;;;17.31;100.00;100065.38;5032859;28;20605;-82
2022/06/02 05:46:41;;;;;;;7.28;6.30;;;;;;;17.32;100.00;100078.88;5008528;28;20033;-82
2022/06/02 05:49:28;;;;;;;7.03;6.30;;;;;;;17.48;100.00;100083.25;5030553;28;20033;-81
2022/06/02 05:52:06;;;;;;;6.78;6.07;;;;;;;17.90;100.00;100091.38;5031459;28;20049;-81
2022/06/02 05:55:03;;;;;;;7.03;5.40;;;;;;;18.32;100.00;100099.44;5026523;28;20034;-81
2022/06/02 05:57:37;;;;;;;6.20;5.50;;;;;;;18.79;100.00;100098.31;5014836;28;20060;-81
2022/06/02 06:00:05;;;;;;;;;;;;;;;19.02;100.00;100106.50;5032721;28;20057;-81
2022/06/02 06:02:59;;;;;;;9.68;5.18;;;;;;;19.33;100.00;100108.63;5022303;28;20382;-81
2022/06/02 06:05:56;;;;;;;7.40;5.30;;;;;;;19.65;99.25;100112.31;5003729;28;20064;-82
2022/06/02 06:08:34;;;;;;;8.25;4.75;;;;;;;19.75;96.04;100121.34;5008800;28;20058;-83
2022/06/02 06:11:12;;;;;;;7.55;5.10;;;;;;;19.59;97.40;100116.31;4986564;28;20491;-83
2022/06/02 06:13:58;;;;;;;6.90;5.13;;;;;;;19.58;96.74;100111.97;4996159;28;20042;-83
2022/06/02 06:16:39;;;;;;;5.90;4.82;;;;;;;19.64;95.71;100116.38;5022671;28;20057;-83
2022/06/02 06:19:16;;;;;;;5.55;5.03;;;;;;;19.55;94.69;100103.25;4986753;28;20042;-83
2022/06/02 06:22:15;;;;;;;5.18;4.60;;;;;;;19.72;94.23;100108.28;5009287;28;20034;-83
2022/06/02 06:24:52;;;;;;;5.28;4.78;;;;;;;19.81;93.04;100097.63;5021098;28;20487;-83
2022/06/02 06:27:49;;;;;;;5.22;4.72;;;;;;;19.82;93.69;100106.81;5022694;28;20073;-81
2022/06/02 06:30:24;;;;;;;5.88;4.65;;;;;;;20.10;94.32;100096.53;5030458;28;20096;-81
2022/06/02 06:33:33;;;;;;;5.00;4.50;;;;;;;20.32;94.11;100112.84;5008294;28;20514;-81
2022/06/02 06:36:18;;;;;;;5.03;4.20;;;;;;;20.72;92.47;100108.97;4988511;28;20049;-81
2022/06/02 06:38:47;;;;;;;5.68;4.18;;;;;;;20.97;91.31;100108.06;5001393;28;20517;-82
2022/06/02 06:41:18;;;;;;;5.53;4.43;;;;;;;21.13;87.69;100100.97;5030130;28;20402;-82
2022/06/02 06:44:21;;;;;;;5.05;4.25;;;;;;;21.26;87.30;100118.97;5027007;28;20053;-83
2022/06/02 06:46:55;;;;;;;6.00;3.80;;;;;;;21.40;86.91;100108.72;5007842;28;20132;-82
2022/06/02 06:49:34;;;;;;;4.53;3.72;;;;;;;21.60;84.73;100127.47;5003715;28;20498;-81
2022/06/02 06:52:15;;;;;;;5.78;3.90;;;;;;;21.60;83.99;100124.66;5014780;28;20049;-81
2022/06/02 06:54:46;;;;;;;4.35;3.50;;;;;;;21.53;82.90;100119.53;5003332;28;20372;-82
2022/06/02 06:57:30;;;;;;;4.63;3.95;;;;;;;21.64;82.51;100116.72;5010433;28;20396;-82
2022/06/02 07:00:36;;;;;;;3.72;3.33;;;;;;;21.76;79.46;100118.25;5023418;28;20603;-82
2022/06/02 07:03:19;;;;;;;7.80;3.45;;;;;;;21.92;77.92;100116.78;4946142;28;20086;-81
2022/06/02 07:05:48;;;;;;;6.60;3.40;;;;;;;22.00;77.58;100121.38;4951603;28;20103;-81
2022/06/02 07:08:29;;;;;;;8.02;3.42;;;;;;;22.02;76.95;100121.66;5000147;28;20049;-81
2022/06/02 07:12:50;;;;;;;5.00;3.40;;;;;;;22.03;75.73;100123.19;5030691;28;20072;-81
2022/06/02 07:14:41;;;;;;;5.25;2.83;;;;;;;22.18;74.57;100120.88;5011387;28;20128;-81
2022/06/02 07:17:20;;;;;;;4.30;3.20;;;;;;;22.49;74.75;100116.16;5031652;28;20052;-81
2022/06/02 07:20:06;;;;;;;4.15;2.63;;;;;;;22.63;72.74;100115.13;5022322;28;20092;-81
2022/06/02 07:22:53;;;;;;;4.10;2.92;;;;;;;22.81;72.89;100114.56;5031245;28;20045;-82
2022/06/02 07:25:25;;;;;;;5.97;3.25;;;;;;;22.85;69.53;100132.03;5030927;28;20099;-81
2022/06/02 07:27:57;;;;;;;3.20;2.80;;;;;;;23.08;71.08;100139.16;5013559;28;20446;-82
2022/06/02 07:30:59;;;;;;;3.30;2.50;;;;;;;23.13;68.99;100151.75;5030937;28;20125;-82
2022/06/02 07:33:50;;;;;;;5.95;3.08;;;;;;;23.11;68.55;100143.00;5010594;28;20072;-82
2022/06/02 07:36:38;;;;;;;4.30;2.67;;;;;;;23.21;69.35;100142.16;4996970;28;20092;-82
2022/06/02 07:39:36;;;;;;;4.18;2.63;;;;;;;23.24;66.81;100146.81;5030734;28;20044;-82
2022/06/02 07:42:32;;;;;;;4.25;2.50;;;;;;;23.23;67.58;100150.91;4972829;28;20072;-82
2022/06/02 07:45:23;;;;;;;3.58;2.60;;;;;;;23.31;67.05;100150.34;5030611;28;20057;-82
2022/06/02 07:48:04;;;;;;;4.82;2.60;;;;;;;23.31;65.37;100150.34;5013257;28;20061;-82
2022/06/02 07:50:32;;;;;;;3.58;2.63;;;;;;;23.59;66.45;100148.94;5012117;28;20069;-81
2022/06/02 07:53:13;;;;;;;4.13;2.70;;;;;;;23.89;64.85;100171.66;5023352;28;20038;-82
2022/06/02 07:56:17;;;;;;;4.13;2.60;;;;;;;23.54;64.28;100163.13;5013099;28;20049;-82
2022/06/02 07:58:52;;;;;;;4.78;2.55;;;;;;;23.70;65.66;100170.75;4969276;28;20085;-82
2022/06/02 08:01:17;;;;;;;4.20;2.80;;;;;;;23.92;65.55;100170.59;4969917;28;20054;-81
2022/06/02 08:03:44;;;;;;;4.47;2.47;;;;;;;23.97;64.62;100160.53;5000056;28;20051;-81
2022/06/02 08:06:33;;;;;;;2.95;2.20;;;;;;;23.75;63.76;100167.09;5030602;28;20030;-81
2022/06/02 08:09:24;;;;;;;4.60;2.58;;;;;;;23.72;63.52;100167.41;4975312;28;20037;-81
2022/06/02 08:11:58;;;;;;;4.85;2.20;;;;;;;23.84;64.07;100166.78;5030562;28;20056;-81
2022/06/02 08:14:50;;;;;;;5.57;2.25;;;;;;;24.15;63.48;100152.13;5012490;28;20052;-81
2022/06/02 08:17:20;;;;;;;3.47;2.20;;;;;;;24.58;64.08;100163.59;5024491;28;20050;-81
2022/06/02 08:20:11;;;;;;;4.65;2.08;;;;;;;24.82;62.24;100170.56;4994318;28;20042;-81
2022/06/02 08:22:43;;;;;;;4.03;2.45;;;;;;;25.15;61.72;100183.63;5030175;28;20069;-82
2022/06/02 08:25:11;;;;;;;2.97;2.17;;;;;;;25.34;60.65;100176.66;5023299;28;20124;-81
2022/06/02 08:27:58;;;;;;;3.55;1.95;;;;;;;24.77;59.65;100182.75;5030459;28;20041;-81
2022/06/02 08:31:13;;;;;;;2.70;2.00;;;;;;;24.79;61.16;100183.75;5023852;28;20056;-81
2022/06/02 08:33:45;;;;;;;3.55;1.80;;;;;;;24.89;60.17;100187.03;4994639;28;20045;-81
2022/06/02 08:36:14;;;;;;;2.95;2.10;;;;;;;24.97;60.21;100180.22;5023155;28;20096;-81
2022/06/02 08:38:55;;;;;;;4.97;2.20;;;;;;;25.18;59.14;100186.16;5030068;28;20044;-81
2022/06/02 08:41:34;;;;;;;3.35;2.35;;;;;;;24.78;58.23;100184.28;5027560;28;20053;-82
2022/06/02 08:44:30;;;;;;;3.67;2.03;;;;;;;24.79;58.59;100180.91;5011799;28;20109;-82
2022/06/02 08:47:23;;;;;;;3.88;2.10;;;;;;;24.96;58.51;100180.75;5029716;28;20052;-82
2022/06/02 08:50:11;;;;;;;4.45;2.20;;;;;;;25.29;59.34;100191.69;5029422;28;20034;-82
2022/06/02 08:52:58;;;;;;;5.03;1.98;;;;;;;25.76;57.16;100194.94;5030506;28;20080;-82
2022/06/02 08:55:30;;;;;;;2.33;1.95;;;;;;;25.91;54.66;100195.25;5029359;28;20044;-82
2022/06/02 08:58:17;;;;;;;2.72;1.90;;;;;;;25.87;54.54;100200.47;5027895;28;20136;-82
2022/06/02 09:01:01;;;;;;;4.40;2.05;;;;;;;25.83;53.59;100196.41;5030234;28;20049;-82
2022/06/02 09:04:04;;;;;;;2.70;1.90;;;;;;;25.96;51.64;100208.59;5022454;28;20042;-82
2022/06/02 09:06:48;;;;;;;3.00;2.08;;;;;;;25.89;51.70;100206.38;5023045;28;20042;-82
2022/06/02 09:09:35;;;;;;;5.70;2.47;;;;;;;26.08;50.90;100202.75;5003066;28;20038;-82
2022/06/02 09:12:16;;;;;;;3.50;2.10;;;;;;;26.14;50.57;100200.56;5021490;28;20037;-82
2022/06/02 09:15:19;;;;;;;4.13;2.00;;;;;;;26.29;52.31;100192.34;5023043;28;20034;-82
2022/06/02 09:18:02;;;;;;;2.75;2.00;;;;;;;26.40;51.36;100203.53;5022008;28;20557;-81
2022/06/02 09:20:54;;;;;;;2.95;1.98;;;;;;;26.51;49.74;100196.88;5020015;28;20037;-82
2022/06/02 09:23:35;;;;;;;3.60;2.10;;;;;;;26.62;50.31;100190.97;4992449;28;20406;-82
2022/06/02 09:26:38;;;;;;;4.47;2.17;;;;;;;26.80;49.10;100190.91;5031774;28;20384;-82
2022/06/02 09:29:09;;;;;;;4.40;2.50;;;;;;;26.81;46.24;100186.00;4993564;28;20092;-82
2022/06/02 09:32:14;;;;;;;3.53;2.10;;;;;;;27.08;48.50;100181.84;5028773;28;20045;-82
2022/06/02 09:34:40;;;;;;;2.95;1.88;;;;;;;27.32;46.95;100186.53;4982979;28;20077;-82
2022/06/02 09:37:32;;;;;;;2.53;1.98;;;;;;;27.25;45.83;100210.00;5029657;28;20049;-82
2022/06/02 09:39:58;;;;;;;2.97;2.00;;;;;;;27.16;47.52;100214.03;5021232;28;20100;-82
2022/06/02 09:43:01;;;;;;;3.58;1.80;;;;;;;27.12;46.49;100212.84;5023687;28;20034;-82
2022/06/02 09:45:36;;;;;;;2.08;1.60;;;;;;;27.31;47.31;100213.47;4994933;28;20500;-82
2022/06/02 09:48:29;;;;;;;3.58;1.83;;;;;;;27.30;46.01;100224.09;5029087;28;20141;-82
2022/06/02 09:51:29;;;;;;;3.75;2.15;;;;;;;27.25;46.44;100221.38;4999865;28;20108;-82
2022/06/02 09:54:32;;;;;;;9.52;2.20;;;;;;;27.13;46.29;100228.63;5005436;28;20064;-82
2022/06/02 10:00:38;;;;;;;2.65;1.70;;;;;;;27.40;43.33;100210.19;5021653;28;20057;-82
2022/06/02 10:03:23;;;;;;;3.83;1.90;;;;;;;27.56;44.41;100220.47;5004350;28;20049;-82
2022/06/02 10:06:04;;;;;;;3.40;1.83;;;;;;;27.45;44.24;100219.94;5006608;28;20046;-81
2022/06/02 10:08:41;;;;;;;2.90;2.00;;;;;;;27.39;42.08;100225.72;5012811;28;20101;-81
2022/06/02 10:11:28;;;;;;;4.03;1.80;;;;;;;27.05;42.99;100219.19;5012745;28;20434;-82
2022/06/02 10:14:28;;;;;;;2.95;1.90;;;;;;;27.09;43.15;100222.47;5007591;28;20120;-82
2022/06/02 10:17:12;;;;;;;5.07;2.15;;;;;;;27.16;44.56;100213.28;5012634;28;20049;-82
2022/06/02 10:20:06;;;;;;;4.07;1.80;;;;;;;27.51;43.83;100220.59;5012253;28;20060;-82
2022/06/02 10:22:43;;;;;;;2.53;1.88;;;;;;;27.53;41.90;100215.88;5011927;28;20050;-82
2022/06/02 10:25:12;;;;;;;2.53;1.70;;;;;;;27.74;42.92;100222.41;5008642;28;20507;-82
2022/06/02 10:27:40;;;;;;;2.03;1.80;;;;;;;27.66;41.34;100215.84;5011424;28;20101;-82
2022/06/02 10:30:24;;;;;;;6.25;2.70;;;;;;;27.69;43.19;100216.84;5012605;28;20109;-82
2022/06/02 10:33:23;;;;;;;2.60;2.30;;;;;;;27.95;42.42;100207.41;5012996;28;20045;-82
2022/06/02 10:36:03;;;;;;;5.32;2.00;;;;;;;27.69;40.02;100214.75;5005137;28;20376;-82
2022/06/02 10:38:56;;;;;;;3.58;2.25;;;;;;;27.77;40.82;100218.47;4993803;28;20081;-81
2022/06/02 10:41:54;;;;;;;2.42;1.98;;;;;;;28.11;40.76;100212.75;4967572;28;20498;-82
2022/06/02 10:44:29;;;;;;;2.53;1.90;;;;;;;28.26;40.67;100203.59;5006159;28;20046;-82
2022/06/02 10:47:26;;;;;;;3.78;1.80;;;;;;;28.36;41.48;100209.56;5010762;28;20117;-80
2022/06/02 10:50:10;;;;;;;3.38;1.77;;;;;;;28.49;40.82;100210.25;5004989;28;20455;-81
2022/06/02 10:53:07;;;;;;;2.88;1.70;;;;;;;28.35;40.01;100205.19;5002103;28;20096;-82
2022/06/02 10:55:52;;;;;;;3.55;2.03;;;;;;;28.37;40.43;100206.16;4999926;28;20514;-81
2022/06/02 10:58:59;;;;;;;3.80;1.90;;;;;;;28.49;40.49;100213.09;5000278;28;20042;-81
2022/06/02 11:01:41;;;;;;;3.17;1.90;;;;;;;28.63;41.54;100210.94;4989983;28;20574;-82
2022/06/02 11:04:36;;;;;;;3.83;2.00;;;;;;;28.79;41.35;100211.84;5020516;28;20061;-81
2022/06/02 11:07:23;;;;;;;5.07;2.00;;;;;;;28.79;41.53;100209.00;5023896;28;20066;-82
2022/06/02 11:10:13;;;;;;;5.53;2.10;;;;;;;28.51;40.26;100201.88;5019088;28;20084;-82
2022/06/02 11:12:48;;;;;;;5.22;1.92;;;;;;;28.49;39.38;100198.84;5030040;28;20038;-80
2022/06/02 11:15:26;;;;;;;3.90;1.80;;;;;;;28.80;40.87;100211.28;5023570;28;20447;-80
2022/06/02 11:18:29;;;;;;;3.50;1.70;;;;;;;28.90;39.12;100202.97;5021730;28;20097;-81
2022/06/02 11:21:12;;;;;;;2.28;1.63;;;;;;;28.99;40.11;100202.47;5027395;28;20049;-81
2022/06/02 11:23:38;;;;;;;2.03;1.73;;;;;;;29.02;38.67;100201.34;5024925;28;20050;-81
2022/06/02 11:26:28;;;;;;;2.75;1.90;;;;;;;29.11;40.60;100213.03;5026265;28;20037;-81
2022/06/02 11:28:59;;;;;;;4.22;2.03;;;;;;;29.04;38.83;100210.09;5026513;28;20041;-81
2022/06/02 11:31:58;;;;;;;7.40;1.88;;;;;;;28.90;39.93;100206.59;5026248;28;20045;-81
2022/06/02 11:34:35;;;;;;;3.72;2.05;;;;;;;28.93;39.62;100204.72;5022723;28;20042;-81
2022/06/02 11:37:50;;;;;;;3.42;2.25;;;;;;;28.86;41.38;100202.56;5027988;28;20137;-81
2022/06/02 11:40:34;;;;;;;2.63;2.20;;;;;;;29.01;39.12;100200.56;4945109;28;20066;-82
2022/06/02 11:43:05;;;;;;;2.80;2.00;;;;;;;28.91;40.36;100193.09;5013163;28;20060;-81
2022/06/02 11:45:50;;;;;;;2.35;1.95;;;;;;;28.99;40.60;100205.34;5030175;28;20034;-81
2022/06/02 11:48:41;;;;;;;4.72;2.28;;;;;;;28.90;41.22;100206.59;5030541;28;20048;-81
2022/06/02 11:51:45;;;;;;;3.30;2.10;;;;;;;28.91;41.97;100193.09;5012498;28;20466;-81
2022/06/02 11:54:23;;;;;;;2.85;1.98;;;;;;;28.81;40.75;100192.06;4953680;28;20050;-82
2022/06/02 11:57:26;;;;;;;3.63;2.00;;;;;;;28.81;40.97;100189.22;4956101;28;20069;-81
2022/06/02 11:59:54;;;;;;;;;;;;;;;29.04;40.69;100185.16;5008177;28;20115;-81
2022/06/02 12:02:33;;;;;;;3.53;2.00;;;;;;;29.24;39.16;100186.41;5024918;28;19920;-82
2022/06/02 12:05:17;;;;;;;4.03;1.90;;;;;;;29.54;40.83;100186.56;5008639;28;20048;-81
2022/06/02 12:08:06;;;;;;;5.63;2.25;;;;;;;29.42;39.63;100190.34;5008176;28;20042;-81
2022/06/02 12:10:37;;;;;;;2.85;1.90;;;;;;;29.15;40.42;100189.81;5007493;28;20073;-81
2022/06/02 12:13:20;;;;;;;3.90;2.58;;;;;;;28.85;40.38;100189.63;5010284;28;20041;-81
2022/06/02 12:15:48;;;;;;;3.80;2.03;;;;;;;28.90;38.70;100188.69;4992152;28;20061;-82
2022/06/02 12:18:26;;;;;;;3.60;2.05;;;;;;;28.97;39.54;100185.13;5010052;28;20037;-81
2022/06/02 12:21:04;;;;;;;2.63;1.90;;;;;;;29.12;39.03;100190.91;4990821;28;20050;-81
2022/06/02 12:23:45;;;;;;;2.90;2.08;;;;;;;29.11;39.43;100187.31;5008071;28;20407;-81
2022/06/02 12:26:43;;;;;;;2.00;1.70;;;;;;;29.09;40.30;100181.38;4990838;28;20380;-81
2022/06/02 12:29:23;;;;;;;3.22;2.13;;;;;;;28.95;39.68;100185.69;4954197;28;20046;-81
2022/06/02 12:32:00;;;;;;;3.15;1.90;;;;;;;28.84;39.35;100173.81;4992144;28;20046;-81
2022/06/02 12:34:35;;;;;;;2.05;1.83;;;;;;;28.82;39.55;100179.31;5002140;28;20135;-81
2022/06/02 12:37:10;;;;;;;3.00;2.10;;;;;;;29.05;39.98;100188.78;5009711;28;20052;-81
2022/06/02 12:39:50;;;;;;;3.55;1.83;;;;;;;28.95;37.09;100176.38;4992561;28;20509;-81
2022/06/02 12:42:33;;;;;;;2.72;1.90;;;;;;;29.10;38.22;100177.22;5010165;28;20045;-81
2022/06/02 12:45:02;;;;;;;;;;;;;;;29.39;38.00;100180.81;4993046;28;20100;-81
2022/06/02 12:48:07;;;;;;;2.42;1.90;;;;;;;29.63;36.16;100183.19;5009525;28;19924;-81
2022/06/02 12:50:52;;;;;;;2.35;1.85;;;;;;;29.34;34.70;100187.44;4995255;28;20042;-82
2022/06/02 12:53:50;;;;;;;4.93;1.73;;;;;;;29.19;35.35;100184.50;4994564;28;20078;-82
2022/06/02 12:56:43;;;;;;;2.95;1.90;;;;;;;29.04;36.47;100178.69;4996303;28;20693;-82